ΕΜΥ, Εθνική Μετεωρολογική Υπηρεσία - Δελτία Καιρού, Προγνώσεις

ΑΕΡΟΝΑΥΤΙΛΙΑ

GREEK AIRPORTS CODES

TAF LGMT 241400Z 2415/2424 04015KT 9999 SCT020 PROB30 TEMPO 2415/2418 3000 SNRA SCT008 BKN030 BECMG 2416/2418 04015G25KT=

EUROPEAN AIRPORTS CODES

LFPO 241630Z 12003KT CAVOK 05/01 Q1031 NOSIG=